createdAt,value
2023-03-02T00:01:44.242Z,-0.05
2023-03-02T00:04:17.617Z,-0.08
2023-03-02T00:06:45.895Z,-0.09
2023-03-02T00:09:13.665Z,-0.16
2023-03-02T00:11:41.508Z,-0.21
2023-03-02T00:14:09.278Z,-0.25
2023-03-02T00:16:37.176Z,-0.29
2023-03-02T00:19:05.138Z,-0.35
2023-03-02T00:21:32.988Z,-0.38
2023-03-02T00:24:00.813Z,-0.38
2023-03-02T00:26:28.910Z,-0.40
2023-03-02T00:28:56.770Z,-0.41
2023-03-02T00:31:24.797Z,-0.44
2023-03-02T00:33:54.493Z,-0.47
2023-03-02T00:36:23.198Z,-0.47
2023-03-02T00:38:54.672Z,-0.44
2023-03-02T00:41:22.589Z,-0.41
2023-03-02T00:43:51.169Z,-0.38
2023-03-02T00:46:21.031Z,-0.34
2023-03-02T00:48:50.031Z,-0.29
2023-03-02T00:51:18.301Z,-0.33
2023-03-02T00:53:46.432Z,-0.43
2023-03-02T00:56:14.209Z,-0.55
2023-03-02T00:58:44.604Z,-0.57
2023-03-02T01:01:13.960Z,-0.56
2023-03-02T01:03:47.138Z,-0.56
2023-03-02T01:06:17.829Z,-0.55
2023-03-02T01:08:45.976Z,-0.55
2023-03-02T01:11:21.140Z,-0.55
2023-03-02T01:13:50.283Z,-0.55
2023-03-02T01:16:18.556Z,-0.55
2023-03-02T01:18:46.802Z,-0.56
2023-03-02T01:21:16.160Z,-0.61
2023-03-02T01:23:44.290Z,-0.65
2023-03-02T01:26:12.547Z,-0.66
2023-03-02T01:28:40.330Z,-0.62
2023-03-02T01:31:08.461Z,-0.64
2023-03-02T01:33:36.437Z,-0.71
2023-03-02T01:36:05.897Z,-0.78
2023-03-02T01:38:33.880Z,-0.77
2023-03-02T01:41:01.787Z,-0.75
2023-03-02T01:43:29.781Z,-0.76
2023-03-02T01:46:12.690Z,-0.75
2023-03-02T01:49:07.519Z,-0.76
2023-03-02T01:51:46.317Z,-0.82
2023-03-02T01:54:22.988Z,-0.91
2023-03-02T01:56:58.282Z,-0.94
2023-03-02T01:59:28.599Z,-0.92
2023-03-02T02:01:59.218Z,-0.87
2023-03-02T02:04:29.300Z,-0.81
2023-03-02T02:07:02.112Z,-0.83
2023-03-02T02:09:48.188Z,-0.90
2023-03-02T02:12:21.714Z,-0.95
2023-03-02T02:14:50.084Z,-0.92
2023-03-02T02:17:18.715Z,-0.87
2023-03-02T02:20:20.599Z,-0.82
2023-03-02T02:22:57.547Z,-0.93
2023-03-02T02:25:58.118Z,-0.94
2023-03-02T02:28:30.526Z,-0.99
2023-03-02T02:31:17.296Z,-1.05
2023-03-02T02:33:49.854Z,-1.08
2023-03-02T02:36:21.879Z,-1.06
2023-03-02T02:38:50.332Z,-1.05
2023-03-02T02:41:22.962Z,-1.04
2023-03-02T02:43:51.616Z,-1.00
2023-03-02T02:46:19.515Z,-0.94
2023-03-02T02:48:47.378Z,-0.90
2023-03-02T02:51:18.966Z,-0.93
2023-03-02T02:54:01.574Z,-0.94
2023-03-02T02:56:39.824Z,-0.93
2023-03-02T02:59:17.550Z,-0.90
2023-03-02T03:01:46.911Z,-0.90
2023-03-02T03:04:19.449Z,-0.93
2023-03-02T03:06:55.967Z,-1.00
2023-03-02T03:09:24.490Z,-1.00
2023-03-02T03:12:14.549Z,-0.94
2023-03-02T03:14:42.872Z,-0.91
2023-03-02T03:17:13.787Z,-0.90
2023-03-02T03:19:47.663Z,-0.91
2023-03-02T03:22:16.768Z,-0.92
2023-03-02T03:24:45.814Z,-0.90
2023-03-02T03:27:15.652Z,-0.88
2023-03-02T03:29:48.063Z,-0.85
2023-03-02T03:32:17.916Z,-0.85
2023-03-02T03:34:46.402Z,-0.87
2023-03-02T03:37:20.766Z,-0.93
2023-03-02T03:39:48.788Z,-0.94
2023-03-02T03:42:17.085Z,-0.93
2023-03-02T03:44:45.401Z,-0.91
2023-03-02T03:47:13.305Z,-0.89
2023-03-02T03:49:41.534Z,-0.89
2023-03-02T03:52:10.002Z,-0.97
2023-03-02T03:54:37.888Z,-1.02
2023-03-02T03:57:06.577Z,-1.01
2023-03-02T03:59:34.367Z,-1.05
2023-03-02T04:02:03.512Z,-1.07
2023-03-02T04:04:40.327Z,-1.04
2023-03-02T04:07:18.588Z,-1.03
2023-03-02T04:09:47.284Z,-1.04
2023-03-02T04:12:16.215Z,-1.01
2023-03-02T04:14:48.432Z,-1.00
2023-03-02T04:17:16.746Z,-1.07
2023-03-02T04:19:47.330Z,-1.16
2023-03-02T04:22:16.927Z,-1.23
2023-03-02T04:24:45.414Z,-1.31
2023-03-02T04:27:14.162Z,-1.29
2023-03-02T04:29:43.893Z,-1.22
2023-03-02T04:32:15.370Z,-1.20
2023-03-02T04:34:46.094Z,-1.21
2023-03-02T04:37:15.956Z,-1.17
2023-03-02T04:39:47.384Z,-1.11
2023-03-02T04:42:15.155Z,-1.10
2023-03-02T04:44:42.975Z,-1.17
2023-03-02T04:47:11.039Z,-1.22
2023-03-02T04:49:39.042Z,-1.27
2023-03-02T04:52:06.917Z,-1.27
2023-03-02T04:54:34.960Z,-1.27
2023-03-02T04:57:02.765Z,-1.28
2023-03-02T04:59:30.640Z,-1.31
2023-03-02T05:02:00.091Z,-1.33
2023-03-02T05:04:29.168Z,-1.42
2023-03-02T05:06:57.812Z,-1.45
2023-03-02T05:09:28.766Z,-1.40
2023-03-02T05:11:58.575Z,-1.33
2023-03-02T05:14:26.870Z,-1.31
2023-03-02T05:16:55.517Z,-1.35
2023-03-02T05:19:23.366Z,-1.40
2023-03-02T05:21:51.692Z,-1.41
2023-03-02T05:24:19.584Z,-1.42
2023-03-02T05:26:47.346Z,-1.42
2023-03-02T05:29:15.211Z,-1.41
2023-03-02T05:31:44.826Z,-1.37
2023-03-02T05:34:16.097Z,-1.33
2023-03-02T05:36:45.452Z,-1.29
2023-03-02T05:39:13.882Z,-1.29
2023-03-02T05:41:42.485Z,-1.35
2023-03-02T05:44:12.112Z,-1.42
2023-03-02T05:46:40.108Z,-1.37
2023-03-02T05:49:08.042Z,-1.32
2023-03-02T05:51:35.944Z,-1.27
2023-03-02T05:54:03.944Z,-1.25
2023-03-02T05:56:32.195Z,-1.24
2023-03-02T05:59:00.174Z,-1.23
2023-03-02T06:01:27.924Z,-1.23
2023-03-02T06:03:56.013Z,-1.28
2023-03-02T06:06:23.801Z,-1.25
2023-03-02T06:08:51.651Z,-1.23
2023-03-02T06:11:21.805Z,-1.21
2023-03-02T06:13:49.619Z,-1.12
2023-03-02T06:16:17.473Z,-1.03
2023-03-02T06:18:45.400Z,-0.94
2023-03-02T06:21:13.138Z,-0.86
2023-03-02T06:23:40.887Z,-0.77
2023-03-02T06:26:12.441Z,-0.71
2023-03-02T06:28:52.080Z,-0.60
2023-03-02T06:31:21.893Z,-0.47
2023-03-02T06:33:49.880Z,-0.35
2023-03-02T06:36:18.227Z,-0.24
2023-03-02T06:38:48.286Z,-0.19
2023-03-02T06:41:16.385Z,-0.11
2023-03-02T06:43:44.426Z,-0.05
2023-03-02T06:46:12.544Z,0.07
2023-03-02T06:48:40.383Z,0.19
2023-03-02T06:51:08.408Z,0.33
2023-03-02T06:53:36.227Z,0.46
2023-03-02T06:56:04.492Z,0.59
2023-03-02T06:58:32.501Z,0.71
2023-03-02T07:01:00.325Z,0.82
2023-03-02T07:03:28.253Z,0.93
2023-03-02T07:05:56.221Z,1.04
2023-03-02T07:08:24.111Z,1.15
2023-03-02T07:10:52.011Z,1.26
2023-03-02T07:13:20.229Z,1.36
2023-03-02T07:15:48.059Z,1.51
2023-03-02T07:18:15.989Z,1.69
2023-03-02T07:20:43.829Z,1.85
2023-03-02T07:23:11.820Z,2.01
2023-03-02T07:25:39.540Z,2.16
2023-03-02T07:28:07.433Z,2.30
2023-03-02T07:30:35.206Z,2.44
2023-03-02T07:33:03.171Z,2.49
2023-03-02T07:35:31.080Z,2.50
2023-03-02T07:37:59.064Z,2.58
2023-03-02T07:40:27.033Z,2.67
2023-03-02T07:42:54.788Z,2.72
2023-03-02T07:45:24.918Z,2.83
2023-03-02T07:47:52.811Z,2.98
2023-03-02T07:50:21.061Z,3.15
2023-03-02T07:52:48.932Z,3.28
2023-03-02T07:55:16.925Z,3.41
2023-03-02T07:57:50.950Z,3.55
2023-03-02T08:00:19.490Z,3.73
2023-03-02T08:02:47.633Z,3.91
2023-03-02T08:05:15.810Z,4.05
2023-03-02T08:07:44.136Z,4.20
2023-03-02T08:10:12.445Z,4.37
2023-03-02T08:12:40.436Z,4.51
2023-03-02T08:15:09.286Z,4.66
2023-03-02T08:17:37.313Z,4.81
2023-03-02T08:20:06.702Z,4.98
2023-03-02T08:22:34.838Z,5.11
2023-03-02T08:25:03.001Z,5.19
2023-03-02T08:27:31.129Z,5.34
2023-03-02T08:29:58.963Z,5.50
2023-03-02T08:32:26.858Z,5.62
2023-03-02T08:34:54.765Z,5.69
2023-03-02T08:37:22.594Z,5.70
2023-03-02T08:39:51.747Z,5.83
2023-03-02T08:42:19.500Z,6.00
2023-03-02T08:44:47.264Z,6.16
2023-03-02T08:47:15.124Z,6.31
2023-03-02T08:49:42.989Z,6.48
2023-03-02T08:52:10.883Z,6.70
2023-03-02T08:54:40.659Z,6.94
2023-03-02T08:57:11.522Z,7.08
2023-03-02T08:59:39.578Z,7.21
2023-03-02T14:02:37.320Z,18.52
2023-03-02T14:05:06.658Z,18.84
2023-03-02T14:07:34.745Z,19.25
2023-03-02T14:10:02.524Z,19.69
2023-03-02T14:12:32.933Z,20.07
2023-03-02T14:15:03.918Z,20.41
2023-03-02T14:17:31.748Z,20.58
2023-03-02T14:19:59.547Z,20.64
2023-03-02T14:22:29.740Z,20.72
2023-03-02T14:24:57.954Z,20.92
2023-03-02T14:27:29.748Z,21.25
2023-03-02T14:29:57.582Z,21.15
2023-03-02T14:32:25.613Z,20.93
2023-03-02T14:34:53.526Z,20.77
2023-03-02T14:37:25.923Z,20.78
2023-03-02T14:39:56.831Z,20.86
2023-03-02T14:42:24.693Z,20.54
2023-03-02T14:44:52.863Z,20.28
2023-03-02T14:47:21.832Z,20.12
2023-03-02T14:49:50.292Z,20.04
2023-03-02T14:52:32.339Z,19.97
2023-03-02T14:55:01.004Z,19.95
2023-03-02T14:57:29.921Z,19.86
2023-03-02T14:59:59.972Z,19.83
2023-03-02T15:02:27.897Z,19.71
2023-03-02T15:04:57.393Z,19.48
2023-03-02T15:07:28.106Z,19.32
2023-03-02T15:09:56.917Z,19.27
2023-03-02T15:12:25.368Z,19.10
2023-03-02T15:14:53.112Z,18.80
2023-03-02T15:17:21.037Z,18.58
2023-03-02T15:19:48.853Z,18.13
2023-03-02T15:22:16.694Z,17.58
2023-03-02T15:24:44.473Z,17.20
2023-03-02T15:27:12.305Z,16.89
2023-03-02T15:29:44.160Z,16.98
2023-03-02T15:32:12.437Z,17.13
2023-03-02T15:34:40.375Z,17.22
2023-03-02T15:37:11.412Z,17.08
2023-03-02T15:39:39.870Z,16.67
2023-03-02T15:42:07.703Z,16.32
2023-03-02T15:44:35.484Z,16.26
2023-03-02T15:47:03.552Z,16.02
2023-03-02T15:49:32.870Z,15.65
2023-03-02T15:52:00.944Z,14.72
2023-03-02T15:54:29.357Z,13.52
2023-03-02T15:56:57.466Z,12.41
2023-03-02T15:59:28.129Z,11.59
2023-03-02T16:01:59.601Z,10.89
2023-03-02T16:04:28.399Z,10.25
2023-03-02T16:06:57.691Z,9.74
2023-03-02T16:09:26.738Z,9.22
2023-03-02T16:11:56.003Z,8.87
2023-03-02T16:14:24.240Z,8.49
2023-03-02T16:16:52.225Z,8.16
2023-03-02T16:19:20.404Z,7.85
2023-03-02T16:21:48.476Z,7.62
2023-03-02T16:24:17.181Z,7.39
2023-03-02T16:26:45.987Z,7.14
2023-03-02T16:29:14.303Z,6.88
2023-03-02T16:31:46.471Z,6.68
2023-03-02T16:34:14.674Z,6.55
2023-03-02T16:36:42.726Z,6.37
2023-03-02T16:39:13.271Z,6.19
2023-03-02T16:41:43.027Z,6.08
2023-03-02T16:44:14.569Z,5.89
2023-03-02T16:46:43.578Z,5.71
2023-03-02T16:49:12.814Z,5.63
2023-03-02T16:51:41.653Z,5.62
2023-03-02T16:54:10.556Z,5.63
2023-03-02T16:56:39.704Z,5.56
2023-03-02T16:59:07.516Z,5.41
2023-03-02T17:01:35.305Z,5.29
2023-03-02T17:04:05.815Z,5.17
2023-03-02T17:06:33.973Z,5.10
2023-03-02T17:09:01.860Z,5.00
2023-03-02T17:11:31.722Z,4.90
2023-03-02T17:13:59.707Z,4.85
2023-03-02T17:16:27.809Z,4.73
2023-03-02T17:18:55.784Z,4.66
2023-03-02T17:21:24.505Z,4.65
2023-03-02T17:23:52.345Z,4.58
2023-03-02T17:26:21.220Z,4.48
2023-03-02T17:28:49.034Z,4.39
2023-03-02T17:31:16.860Z,4.34
2023-03-02T17:33:44.722Z,4.24
2023-03-02T17:36:12.610Z,4.21
2023-03-02T17:38:40.647Z,4.23
2023-03-02T17:41:10.453Z,4.24
2023-03-02T17:43:40.443Z,4.20
2023-03-02T17:46:25.539Z,4.16
2023-03-02T17:48:55.952Z,4.12
2023-03-02T17:51:25.082Z,4.05
2023-03-02T17:53:54.558Z,4.02
2023-03-02T17:56:27.774Z,3.93
2023-03-02T17:58:57.911Z,3.86
2023-03-02T18:01:26.575Z,3.95
2023-03-02T18:03:54.825Z,4.04
2023-03-02T18:06:23.171Z,4.16
2023-03-02T18:08:51.869Z,4.32
2023-03-02T18:11:21.979Z,4.45
2023-03-02T18:13:49.975Z,4.49
2023-03-02T18:16:17.814Z,4.39
2023-03-02T18:18:45.674Z,4.39
2023-03-02T18:21:13.657Z,4.42
2023-03-02T18:23:42.139Z,4.43
2023-03-02T18:26:10.140Z,4.38
2023-03-02T18:28:38.393Z,4.33
2023-03-02T18:31:07.610Z,4.27
2023-03-02T18:33:35.599Z,4.20
2023-03-02T18:36:05.527Z,4.19
2023-03-02T18:38:34.788Z,4.20
2023-03-02T18:41:05.104Z,4.16
2023-03-02T18:43:34.908Z,4.13
2023-03-02T18:46:04.317Z,4.14
2023-03-02T18:48:33.086Z,4.19
2023-03-02T18:51:00.928Z,4.15
2023-03-02T18:53:28.787Z,4.07
2023-03-02T18:55:56.884Z,4.12
2023-03-02T18:58:25.584Z,4.15
2023-03-02T19:00:54.521Z,4.15
2023-03-02T19:03:24.891Z,4.08
2023-03-02T19:05:53.481Z,3.99
2023-03-02T19:08:23.491Z,3.91
2023-03-02T19:10:52.233Z,3.92
2023-03-02T19:13:20.695Z,3.98
2023-03-02T19:15:48.620Z,3.99
2023-03-02T19:18:18.157Z,4.02
2023-03-02T19:20:47.076Z,4.05
2023-03-02T19:23:16.254Z,4.03
2023-03-02T19:25:44.644Z,3.95
2023-03-02T19:28:12.545Z,3.93
2023-03-02T19:30:40.560Z,3.84
2023-03-02T19:33:09.946Z,3.82
2023-03-02T19:35:42.247Z,3.77
2023-03-02T19:38:10.818Z,3.77
2023-03-02T19:40:38.901Z,3.81
2023-03-02T19:43:06.903Z,3.80
2023-03-02T19:45:35.802Z,3.82
2023-03-02T19:48:08.625Z,3.92
2023-03-02T19:50:37.222Z,3.98
2023-03-02T19:53:05.738Z,3.98
2023-03-02T19:55:35.127Z,3.82
2023-03-02T19:58:05.474Z,3.69
2023-03-02T20:00:36.448Z,3.57
2023-03-02T20:03:09.095Z,3.52
2023-03-02T20:05:37.715Z,3.50
2023-03-02T20:08:07.191Z,3.49
2023-03-02T20:10:40.371Z,3.54
2023-03-02T20:13:09.978Z,3.57
2023-03-02T20:15:44.971Z,3.57
2023-03-02T20:18:20.320Z,3.62
2023-03-02T20:20:48.804Z,3.56
2023-03-02T20:23:19.323Z,3.51
2023-03-02T20:25:48.632Z,3.49
2023-03-02T20:28:21.527Z,3.49
2023-03-02T20:30:58.640Z,3.47
2023-03-02T20:33:39.567Z,3.44
2023-03-02T20:36:13.258Z,3.49
2023-03-02T20:38:52.378Z,3.50
2023-03-02T20:41:20.569Z,3.51
2023-03-02T20:43:48.746Z,3.61
2023-03-02T20:46:24.491Z,3.66
2023-03-02T20:48:54.701Z,3.73
2023-03-02T20:51:23.279Z,3.77
2023-03-02T20:53:52.003Z,3.82
2023-03-02T20:56:20.700Z,3.85
2023-03-02T20:58:49.540Z,3.93
2023-03-02T21:01:19.537Z,3.97
2023-03-02T21:03:47.466Z,3.95
2023-03-02T21:06:15.548Z,3.96
2023-03-02T21:08:44.804Z,3.91
2023-03-02T21:11:19.306Z,3.85
2023-03-02T21:13:48.223Z,3.85
2023-03-02T21:16:21.016Z,3.82
2023-03-02T21:18:48.786Z,3.79
2023-03-02T21:21:20.181Z,3.78
2023-03-02T21:23:50.848Z,3.75
2023-03-02T21:26:19.721Z,3.68
2023-03-02T21:28:48.388Z,3.63
2023-03-02T21:31:21.527Z,3.64
2023-03-02T21:33:51.688Z,3.66
2023-03-02T21:36:23.480Z,3.64
2023-03-02T21:38:52.109Z,3.67
2023-03-02T21:41:19.993Z,3.77
2023-03-02T21:43:48.541Z,3.84
2023-03-02T21:46:19.572Z,3.92
2023-03-02T21:48:48.900Z,3.93
2023-03-02T21:51:17.025Z,3.97
2023-03-02T21:53:44.799Z,4.04
2023-03-02T21:56:20.816Z,4.09
2023-03-02T21:58:49.910Z,4.09
2023-03-02T22:01:17.752Z,4.13
2023-03-02T22:03:45.811Z,4.16
2023-03-02T22:06:18.589Z,4.15
2023-03-02T22:08:46.583Z,4.13
2023-03-02T22:11:24.088Z,4.09
2023-03-02T22:13:55.293Z,4.08
2023-03-02T22:16:25.543Z,4.09
2023-03-02T22:18:58.539Z,4.09
2023-03-02T22:21:43.849Z,3.97
2023-03-02T22:24:12.887Z,3.74
2023-03-02T22:26:46.091Z,3.71
2023-03-02T22:29:38.769Z,3.77
2023-03-02T22:32:18.261Z,3.77
2023-03-02T22:34:48.409Z,3.62
2023-03-02T22:37:21.822Z,3.53
2023-03-02T22:39:50.840Z,3.56
2023-03-02T22:42:20.961Z,3.52
2023-03-02T22:45:14.631Z,3.47
2023-03-02T22:47:44.035Z,3.43
2023-03-02T22:50:21.985Z,3.39
2023-03-02T22:52:49.948Z,3.46
2023-03-02T22:55:43.999Z,3.50
2023-03-02T22:58:40.314Z,3.56
2023-03-02T23:01:42.648Z,3.66
2023-03-02T23:04:26.911Z,3.58
2023-03-02T23:06:57.008Z,3.40
2023-03-02T23:09:31.006Z,3.38
2023-03-02T23:12:02.494Z,3.26
2023-03-02T23:14:38.296Z,3.12
2023-03-02T23:17:13.076Z,3.08
2023-03-02T23:19:41.334Z,3.17
2023-03-02T23:22:09.684Z,3.24
2023-03-02T23:24:37.493Z,3.19
2023-03-02T23:27:05.684Z,3.15
2023-03-02T23:29:33.475Z,3.17
2023-03-02T23:32:02.377Z,3.18
2023-03-02T23:34:33.009Z,3.17
2023-03-02T23:37:00.738Z,3.24
2023-03-02T23:39:28.665Z,3.25
2023-03-02T23:41:56.527Z,3.26
2023-03-02T23:44:24.469Z,3.23
2023-03-02T23:46:52.483Z,3.09
2023-03-02T23:49:20.259Z,2.96
2023-03-02T23:51:48.698Z,2.88
2023-03-02T23:54:17.557Z,2.91
2023-03-02T23:56:45.368Z,2.94
2023-03-02T23:59:13.297Z,2.91
